< < Back
Terminal Aerodrome Forecast


Current Version              Previous Versions:   1  2  3  4  5  6  7  8  9  

Terminal Aerodrome Forecast

057
FTUS42 KMLB 300539
TAFMCO
TAF
KMCO 300539Z 3006/0106 16003KT P6SM SCT070 SCT200
     FM301400 13008KT P6SM SCT250
     FM302000 11013KT P6SM SCT060 SCT250
     FM010200 12005KT P6SM FEW070 BKN250=

Latest METAR

719
SAUS70 KWBC 302000
MTRMCO
METAR KMCO 301953Z 11012KT 10SM SCT045 SCT070 OVC250 30/19 A2995 RMK AO2
SLP142 T03000189


USA.gov is the U.S. government's official web portal to all federal, state and local government web resources and services.